sensor_id;sensor_type;location;lat;lon;timestamp;temperature;humidity
20866;DHT22;10593;48.398;10.698;2023-11-21T00:00:19;11.60;58.10
20866;DHT22;10593;48.398;10.698;2023-11-21T00:02:45;11.60;58.10
20866;DHT22;10593;48.398;10.698;2023-11-21T00:05:12;11.60;58.10
20866;DHT22;10593;48.398;10.698;2023-11-21T00:07:42;11.60;58.20
20866;DHT22;10593;48.398;10.698;2023-11-21T00:10:09;11.60;58.20
20866;DHT22;10593;48.398;10.698;2023-11-21T00:12:36;11.50;58.20
20866;DHT22;10593;48.398;10.698;2023-11-21T00:15:02;11.60;58.30
20866;DHT22;10593;48.398;10.698;2023-11-21T00:17:30;11.50;58.30
20866;DHT22;10593;48.398;10.698;2023-11-21T00:19:56;11.60;58.40
20866;DHT22;10593;48.398;10.698;2023-11-21T00:22:22;11.50;58.40
20866;DHT22;10593;48.398;10.698;2023-11-21T00:24:47;11.50;58.50
20866;DHT22;10593;48.398;10.698;2023-11-21T00:27:13;11.50;58.50
20866;DHT22;10593;48.398;10.698;2023-11-21T00:29:40;11.50;58.50
20866;DHT22;10593;48.398;10.698;2023-11-21T00:32:06;11.50;58.60
20866;DHT22;10593;48.398;10.698;2023-11-21T00:34:32;11.50;58.70
20866;DHT22;10593;48.398;10.698;2023-11-21T00:36:59;11.50;58.70
20866;DHT22;10593;48.398;10.698;2023-11-21T00:39:24;11.50;58.80
20866;DHT22;10593;48.398;10.698;2023-11-21T00:41:52;11.50;58.90
20866;DHT22;10593;48.398;10.698;2023-11-21T00:44:18;11.50;59.00
20866;DHT22;10593;48.398;10.698;2023-11-21T00:46:44;11.50;59.00
20866;DHT22;10593;48.398;10.698;2023-11-21T00:49:10;11.50;59.00
20866;DHT22;10593;48.398;10.698;2023-11-21T00:51:35;11.50;59.10
20866;DHT22;10593;48.398;10.698;2023-11-21T00:54:01;11.50;59.10
20866;DHT22;10593;48.398;10.698;2023-11-21T00:56:28;11.50;59.00
20866;DHT22;10593;48.398;10.698;2023-11-21T00:58:54;11.50;59.00
20866;DHT22;10593;48.398;10.698;2023-11-21T01:01:20;11.50;59.00
20866;DHT22;10593;48.398;10.698;2023-11-21T01:03:49;11.50;59.10
20866;DHT22;10593;48.398;10.698;2023-11-21T01:06:16;11.50;59.10
20866;DHT22;10593;48.398;10.698;2023-11-21T01:08:43;11.50;59.50
20866;DHT22;10593;48.398;10.698;2023-11-21T01:11:09;11.50;59.20
20866;DHT22;10593;48.398;10.698;2023-11-21T01:13:38;11.50;59.30
20866;DHT22;10593;48.398;10.698;2023-11-21T01:16:05;11.50;59.40
20866;DHT22;10593;48.398;10.698;2023-11-21T01:18:37;11.50;59.50
20866;DHT22;10593;48.398;10.698;2023-11-21T01:21:03;11.40;59.50
20866;DHT22;10593;48.398;10.698;2023-11-21T01:23:29;11.50;59.60
20866;DHT22;10593;48.398;10.698;2023-11-21T01:25:56;11.50;59.70
20866;DHT22;10593;48.398;10.698;2023-11-21T01:28:22;11.50;59.70
20866;DHT22;10593;48.398;10.698;2023-11-21T01:30:49;11.40;59.60
20866;DHT22;10593;48.398;10.698;2023-11-21T01:33:14;11.50;59.70
20866;DHT22;10593;48.398;10.698;2023-11-21T01:35:43;11.40;59.60
20866;DHT22;10593;48.398;10.698;2023-11-21T01:38:11;11.40;59.60
20866;DHT22;10593;48.398;10.698;2023-11-21T01:40:37;11.40;59.70
20866;DHT22;10593;48.398;10.698;2023-11-21T01:43:03;11.40;59.80
20866;DHT22;10593;48.398;10.698;2023-11-21T01:45:29;11.40;59.80
20866;DHT22;10593;48.398;10.698;2023-11-21T01:47:59;11.40;59.80
20866;DHT22;10593;48.398;10.698;2023-11-21T01:50:26;11.40;59.80
20866;DHT22;10593;48.398;10.698;2023-11-21T01:52:53;11.40;59.90
20866;DHT22;10593;48.398;10.698;2023-11-21T01:55:19;11.40;59.90
20866;DHT22;10593;48.398;10.698;2023-11-21T01:57:46;11.50;59.90
20866;DHT22;10593;48.398;10.698;2023-11-21T02:00:13;11.40;59.80
20866;DHT22;10593;48.398;10.698;2023-11-21T02:02:46;11.40;59.80
20866;DHT22;10593;48.398;10.698;2023-11-21T02:05:14;11.40;59.80
20866;DHT22;10593;48.398;10.698;2023-11-21T02:07:42;11.40;59.80
20866;DHT22;10593;48.398;10.698;2023-11-21T02:10:09;11.40;59.80
20866;DHT22;10593;48.398;10.698;2023-11-21T02:12:35;11.40;59.90
20866;DHT22;10593;48.398;10.698;2023-11-21T02:15:04;11.40;59.90
20866;DHT22;10593;48.398;10.698;2023-11-21T02:17:35;11.40;60.00
20866;DHT22;10593;48.398;10.698;2023-11-21T02:20:02;11.40;60.00
20866;DHT22;10593;48.398;10.698;2023-11-21T02:22:31;11.40;59.80
20866;DHT22;10593;48.398;10.698;2023-11-21T02:25:03;11.40;59.80
20866;DHT22;10593;48.398;10.698;2023-11-21T02:27:29;11.40;59.90
20866;DHT22;10593;48.398;10.698;2023-11-21T02:29:54;11.40;59.90
20866;DHT22;10593;48.398;10.698;2023-11-21T02:32:20;11.40;59.90
20866;DHT22;10593;48.398;10.698;2023-11-21T02:34:48;11.40;60.00
20866;DHT22;10593;48.398;10.698;2023-11-21T02:37:15;11.40;60.10
20866;DHT22;10593;48.398;10.698;2023-11-21T02:39:41;11.40;60.10
20866;DHT22;10593;48.398;10.698;2023-11-21T02:42:07;11.40;60.10
20866;DHT22;10593;48.398;10.698;2023-11-21T02:44:32;11.40;60.10
20866;DHT22;10593;48.398;10.698;2023-11-21T02:46:58;11.40;60.10
20866;DHT22;10593;48.398;10.698;2023-11-21T02:49:23;11.40;60.10
20866;DHT22;10593;48.398;10.698;2023-11-21T02:51:49;11.40;60.10
20866;DHT22;10593;48.398;10.698;2023-11-21T02:54:15;11.40;60.10
20866;DHT22;10593;48.398;10.698;2023-11-21T02:56:42;11.30;60.10
20866;DHT22;10593;48.398;10.698;2023-11-21T02:59:08;11.40;60.10
20866;DHT22;10593;48.398;10.698;2023-11-21T03:01:34;11.30;60.00
20866;DHT22;10593;48.398;10.698;2023-11-21T03:04:00;11.30;60.10
20866;DHT22;10593;48.398;10.698;2023-11-21T03:06:25;11.30;60.10
20866;DHT22;10593;48.398;10.698;2023-11-21T03:08:51;11.30;60.20
20866;DHT22;10593;48.398;10.698;2023-11-21T03:11:17;11.30;60.10
20866;DHT22;10593;48.398;10.698;2023-11-21T03:13:42;11.30;60.00
20866;DHT22;10593;48.398;10.698;2023-11-21T03:16:11;11.30;60.10
20866;DHT22;10593;48.398;10.698;2023-11-21T03:18:38;11.30;60.10
20866;DHT22;10593;48.398;10.698;2023-11-21T03:21:05;11.30;60.00
20866;DHT22;10593;48.398;10.698;2023-11-21T03:23:34;11.30;60.00
20866;DHT22;10593;48.398;10.698;2023-11-21T03:26:01;11.30;60.00
20866;DHT22;10593;48.398;10.698;2023-11-21T03:28:27;11.30;60.00
20866;DHT22;10593;48.398;10.698;2023-11-21T03:30:53;11.20;59.90
20866;DHT22;10593;48.398;10.698;2023-11-21T03:33:20;11.20;59.90
20866;DHT22;10593;48.398;10.698;2023-11-21T03:35:45;11.20;59.90
20866;DHT22;10593;48.398;10.698;2023-11-21T03:38:11;11.20;59.90
20866;DHT22;10593;48.398;10.698;2023-11-21T03:40:37;11.20;59.90
20866;DHT22;10593;48.398;10.698;2023-11-21T03:43:05;11.20;59.90
20866;DHT22;10593;48.398;10.698;2023-11-21T03:45:31;11.20;59.90
20866;DHT22;10593;48.398;10.698;2023-11-21T03:47:57;11.20;59.90
20866;DHT22;10593;48.398;10.698;2023-11-21T03:50:23;11.20;59.90
20866;DHT22;10593;48.398;10.698;2023-11-21T03:52:49;11.20;59.90
20866;DHT22;10593;48.398;10.698;2023-11-21T03:55:14;11.20;59.90
20866;DHT22;10593;48.398;10.698;2023-11-21T03:57:40;11.20;59.90
20866;DHT22;10593;48.398;10.698;2023-11-21T04:00:06;11.20;60.00
20866;DHT22;10593;48.398;10.698;2023-11-21T04:02:34;11.10;60.00
20866;DHT22;10593;48.398;10.698;2023-11-21T04:05:00;11.20;60.10
20866;DHT22;10593;48.398;10.698;2023-11-21T04:07:26;11.20;60.20
20866;DHT22;10593;48.398;10.698;2023-11-21T04:09:52;11.20;60.20
20866;DHT22;10593;48.398;10.698;2023-11-21T04:12:19;11.20;60.20
20866;DHT22;10593;48.398;10.698;2023-11-21T04:14:45;11.20;60.30
20866;DHT22;10593;48.398;10.698;2023-11-21T04:17:10;11.10;60.20
20866;DHT22;10593;48.398;10.698;2023-11-21T04:19:36;11.10;60.30
20866;DHT22;10593;48.398;10.698;2023-11-21T04:22:02;11.10;60.30
20866;DHT22;10593;48.398;10.698;2023-11-21T04:24:27;11.10;60.40
20866;DHT22;10593;48.398;10.698;2023-11-21T04:26:53;11.10;60.40
20866;DHT22;10593;48.398;10.698;2023-11-21T04:29:19;11.10;60.40
20866;DHT22;10593;48.398;10.698;2023-11-21T04:31:45;11.10;60.40
20866;DHT22;10593;48.398;10.698;2023-11-21T04:34:11;11.10;60.40
20866;DHT22;10593;48.398;10.698;2023-11-21T04:36:39;11.10;60.40
20866;DHT22;10593;48.398;10.698;2023-11-21T04:39:05;11.10;60.50
20866;DHT22;10593;48.398;10.698;2023-11-21T04:41:32;11.10;60.50
20866;DHT22;10593;48.398;10.698;2023-11-21T04:43:57;11.10;60.50
20866;DHT22;10593;48.398;10.698;2023-11-21T04:46:24;11.10;60.50
20866;DHT22;10593;48.398;10.698;2023-11-21T04:48:49;11.10;60.60
20866;DHT22;10593;48.398;10.698;2023-11-21T04:51:15;11.10;60.60
20866;DHT22;10593;48.398;10.698;2023-11-21T04:53:41;11.00;60.50
20866;DHT22;10593;48.398;10.698;2023-11-21T04:56:07;11.00;60.50
20866;DHT22;10593;48.398;10.698;2023-11-21T04:58:32;11.10;60.60
20866;DHT22;10593;48.398;10.698;2023-11-21T05:00:59;11.00;60.60
20866;DHT22;10593;48.398;10.698;2023-11-21T05:03:25;11.00;60.90
20866;DHT22;10593;48.398;10.698;2023-11-21T05:05:51;11.10;60.70
20866;DHT22;10593;48.398;10.698;2023-11-21T05:08:19;11.00;60.60
20866;DHT22;10593;48.398;10.698;2023-11-21T05:10:47;11.00;60.60
20866;DHT22;10593;48.398;10.698;2023-11-21T05:13:14;11.00;60.60
20866;DHT22;10593;48.398;10.698;2023-11-21T05:15:43;11.00;60.50
20866;DHT22;10593;48.398;10.698;2023-11-21T05:18:09;11.00;60.60
20866;DHT22;10593;48.398;10.698;2023-11-21T05:20:35;11.00;60.60
20866;DHT22;10593;48.398;10.698;2023-11-21T05:23:01;11.00;60.60
20866;DHT22;10593;48.398;10.698;2023-11-21T05:25:27;11.00;60.60
20866;DHT22;10593;48.398;10.698;2023-11-21T05:27:53;11.00;60.60
20866;DHT22;10593;48.398;10.698;2023-11-21T05:30:21;11.00;60.70
20866;DHT22;10593;48.398;10.698;2023-11-21T05:32:47;11.00;60.60
20866;DHT22;10593;48.398;10.698;2023-11-21T05:35:14;11.00;60.60
20866;DHT22;10593;48.398;10.698;2023-11-21T05:37:45;11.00;60.60
20866;DHT22;10593;48.398;10.698;2023-11-21T05:40:12;11.00;60.60
20866;DHT22;10593;48.398;10.698;2023-11-21T05:42:39;11.00;60.60
20866;DHT22;10593;48.398;10.698;2023-11-21T05:45:07;11.00;60.60
20866;DHT22;10593;48.398;10.698;2023-11-21T05:47:44;11.00;60.60
20866;DHT22;10593;48.398;10.698;2023-11-21T05:50:12;11.00;60.50
20866;DHT22;10593;48.398;10.698;2023-11-21T05:52:45;11.00;60.50
20866;DHT22;10593;48.398;10.698;2023-11-21T05:55:12;11.00;60.40
20866;DHT22;10593;48.398;10.698;2023-11-21T05:57:39;10.90;60.30
20866;DHT22;10593;48.398;10.698;2023-11-21T06:00:08;10.90;60.20
20866;DHT22;10593;48.398;10.698;2023-11-21T06:02:46;10.90;60.30
20866;DHT22;10593;48.398;10.698;2023-11-21T06:05:17;10.90;60.20
20866;DHT22;10593;48.398;10.698;2023-11-21T06:07:44;10.90;60.80
20866;DHT22;10593;48.398;10.698;2023-11-21T06:10:11;10.90;60.10
20866;DHT22;10593;48.398;10.698;2023-11-21T06:12:39;10.90;60.10
20866;DHT22;10593;48.398;10.698;2023-11-21T06:15:08;10.90;60.10
20866;DHT22;10593;48.398;10.698;2023-11-21T06:17:35;10.90;60.00
20866;DHT22;10593;48.398;10.698;2023-11-21T06:20:06;10.90;60.00
20866;DHT22;10593;48.398;10.698;2023-11-21T06:22:40;10.80;59.80
20866;DHT22;10593;48.398;10.698;2023-11-21T06:25:08;10.80;59.70
20866;DHT22;10593;48.398;10.698;2023-11-21T06:27:39;10.80;59.70
20866;DHT22;10593;48.398;10.698;2023-11-21T06:30:05;10.80;59.60
20866;DHT22;10593;48.398;10.698;2023-11-21T06:32:34;10.80;59.60
20866;DHT22;10593;48.398;10.698;2023-11-21T06:35:01;10.80;59.60
20866;DHT22;10593;48.398;10.698;2023-11-21T06:37:29;10.80;59.60
20866;DHT22;10593;48.398;10.698;2023-11-21T06:39:56;10.80;59.50
20866;DHT22;10593;48.398;10.698;2023-11-21T06:42:23;10.80;59.30
20866;DHT22;10593;48.398;10.698;2023-11-21T06:44:50;10.70;59.10
20866;DHT22;10593;48.398;10.698;2023-11-21T06:47:23;10.70;59.00
20866;DHT22;10593;48.398;10.698;2023-11-21T06:49:53;10.70;58.90
20866;DHT22;10593;48.398;10.698;2023-11-21T06:52:19;10.70;58.80
20866;DHT22;10593;48.398;10.698;2023-11-21T06:54:45;10.70;58.80
20866;DHT22;10593;48.398;10.698;2023-11-21T06:57:13;10.70;58.80
20866;DHT22;10593;48.398;10.698;2023-11-21T06:59:39;10.60;58.70
20866;DHT22;10593;48.398;10.698;2023-11-21T07:02:04;10.70;58.80
20866;DHT22;10593;48.398;10.698;2023-11-21T07:04:32;10.70;58.80
20866;DHT22;10593;48.398;10.698;2023-11-21T07:06:58;10.60;58.80
20866;DHT22;10593;48.398;10.698;2023-11-21T07:09:24;10.60;58.90
20866;DHT22;10593;48.398;10.698;2023-11-21T07:11:51;10.60;59.00
20866;DHT22;10593;48.398;10.698;2023-11-21T07:14:17;10.60;59.10
20866;DHT22;10593;48.398;10.698;2023-11-21T07:16:45;10.60;59.20
20866;DHT22;10593;48.398;10.698;2023-11-21T07:19:12;10.60;59.40
20866;DHT22;10593;48.398;10.698;2023-11-21T07:21:39;10.60;59.40
20866;DHT22;10593;48.398;10.698;2023-11-21T07:24:05;10.60;59.60
20866;DHT22;10593;48.398;10.698;2023-11-21T07:26:32;10.60;59.60
20866;DHT22;10593;48.398;10.698;2023-11-21T07:28:59;10.60;60.40
20866;DHT22;10593;48.398;10.698;2023-11-21T07:31:26;10.60;59.90
20866;DHT22;10593;48.398;10.698;2023-11-21T07:33:51;10.60;59.90
20866;DHT22;10593;48.398;10.698;2023-11-21T07:36:18;10.60;60.00
20866;DHT22;10593;48.398;10.698;2023-11-21T07:38:46;10.60;60.10
20866;DHT22;10593;48.398;10.698;2023-11-21T07:41:12;10.60;60.20
20866;DHT22;10593;48.398;10.698;2023-11-21T07:43:41;10.60;60.30
20866;DHT22;10593;48.398;10.698;2023-11-21T07:46:08;10.60;60.40
20866;DHT22;10593;48.398;10.698;2023-11-21T07:48:34;10.70;60.50
20866;DHT22;10593;48.398;10.698;2023-11-21T07:51:02;10.60;60.60
20866;DHT22;10593;48.398;10.698;2023-11-21T07:53:32;10.70;60.60
20866;DHT22;10593;48.398;10.698;2023-11-21T07:56:08;10.70;60.70
20866;DHT22;10593;48.398;10.698;2023-11-21T07:58:35;10.70;60.80
20866;DHT22;10593;48.398;10.698;2023-11-21T08:01:02;10.70;60.80
20866;DHT22;10593;48.398;10.698;2023-11-21T08:03:29;10.70;60.90
20866;DHT22;10593;48.398;10.698;2023-11-21T08:05:59;10.70;60.90
20866;DHT22;10593;48.398;10.698;2023-11-21T08:08:25;10.70;60.90
20866;DHT22;10593;48.398;10.698;2023-11-21T08:10:51;10.70;60.90
20866;DHT22;10593;48.398;10.698;2023-11-21T08:13:24;10.70;61.00
20866;DHT22;10593;48.398;10.698;2023-11-21T08:15:53;10.80;61.10
20866;DHT22;10593;48.398;10.698;2023-11-21T08:18:19;10.80;61.20
20866;DHT22;10593;48.398;10.698;2023-11-21T08:20:45;10.80;61.20
20866;DHT22;10593;48.398;10.698;2023-11-21T08:23:17;10.80;61.30
20866;DHT22;10593;48.398;10.698;2023-11-21T08:25:46;10.80;61.30
20866;DHT22;10593;48.398;10.698;2023-11-21T08:28:12;10.80;61.40
20866;DHT22;10593;48.398;10.698;2023-11-21T08:30:39;10.80;61.40
20866;DHT22;10593;48.398;10.698;2023-11-21T08:33:07;10.80;61.40
20866;DHT22;10593;48.398;10.698;2023-11-21T08:35:34;10.80;61.50
20866;DHT22;10593;48.398;10.698;2023-11-21T08:38:02;10.80;61.60
20866;DHT22;10593;48.398;10.698;2023-11-21T08:40:28;10.80;61.60
20866;DHT22;10593;48.398;10.698;2023-11-21T08:42:54;10.90;61.80
20866;DHT22;10593;48.398;10.698;2023-11-21T08:45:21;10.90;61.80
20866;DHT22;10593;48.398;10.698;2023-11-21T08:47:47;10.90;61.90
20866;DHT22;10593;48.398;10.698;2023-11-21T08:50:13;10.90;61.90
20866;DHT22;10593;48.398;10.698;2023-11-21T08:52:40;10.90;61.90
20866;DHT22;10593;48.398;10.698;2023-11-21T08:55:08;10.90;62.00
20866;DHT22;10593;48.398;10.698;2023-11-21T08:57:37;10.90;62.10
20866;DHT22;10593;48.398;10.698;2023-11-21T09:00:05;11.00;62.30
20866;DHT22;10593;48.398;10.698;2023-11-21T09:02:43;11.00;62.20
20866;DHT22;10593;48.398;10.698;2023-11-21T09:05:13;11.00;62.30
20866;DHT22;10593;48.398;10.698;2023-11-21T09:07:40;11.00;62.30
20866;DHT22;10593;48.398;10.698;2023-11-21T09:10:07;11.00;62.20
20866;DHT22;10593;48.398;10.698;2023-11-21T09:12:35;11.00;62.30
20866;DHT22;10593;48.398;10.698;2023-11-21T09:15:03;11.00;62.20
20866;DHT22;10593;48.398;10.698;2023-11-21T09:17:33;11.00;62.20
20866;DHT22;10593;48.398;10.698;2023-11-21T09:20:00;11.10;62.30
20866;DHT22;10593;48.398;10.698;2023-11-21T09:22:28;11.00;62.20
20866;DHT22;10593;48.398;10.698;2023-11-21T09:24:55;11.10;62.40
20866;DHT22;10593;48.398;10.698;2023-11-21T09:27:22;11.10;62.40
20866;DHT22;10593;48.398;10.698;2023-11-21T09:29:47;11.10;62.40
20866;DHT22;10593;48.398;10.698;2023-11-21T09:32:14;11.10;62.40
20866;DHT22;10593;48.398;10.698;2023-11-21T09:34:41;11.10;62.40
20866;DHT22;10593;48.398;10.698;2023-11-21T09:37:07;11.10;62.30
20866;DHT22;10593;48.398;10.698;2023-11-21T09:39:34;11.10;62.40
20866;DHT22;10593;48.398;10.698;2023-11-21T09:42:10;11.10;62.30
20866;DHT22;10593;48.398;10.698;2023-11-21T09:44:50;11.10;62.40
20866;DHT22;10593;48.398;10.698;2023-11-21T09:47:23;11.20;62.50
20866;DHT22;10593;48.398;10.698;2023-11-21T09:49:49;11.20;62.50
20866;DHT22;10593;48.398;10.698;2023-11-21T09:52:27;11.20;62.50
20866;DHT22;10593;48.398;10.698;2023-11-21T09:54:55;11.20;62.50
20866;DHT22;10593;48.398;10.698;2023-11-21T09:57:24;11.20;62.40
20866;DHT22;10593;48.398;10.698;2023-11-21T09:59:51;11.20;62.50
20866;DHT22;10593;48.398;10.698;2023-11-21T10:02:25;11.20;62.60
20866;DHT22;10593;48.398;10.698;2023-11-21T10:04:54;11.20;62.60
20866;DHT22;10593;48.398;10.698;2023-11-21T10:07:21;11.20;62.70
20866;DHT22;10593;48.398;10.698;2023-11-21T10:09:47;11.30;63.00
20866;DHT22;10593;48.398;10.698;2023-11-21T10:12:16;11.30;63.10
20866;DHT22;10593;48.398;10.698;2023-11-21T10:14:42;11.30;63.90
20866;DHT22;10593;48.398;10.698;2023-11-21T10:17:12;11.30;63.30
20866;DHT22;10593;48.398;10.698;2023-11-21T10:19:41;11.30;63.40
20866;DHT22;10593;48.398;10.698;2023-11-21T10:22:08;11.40;63.50
20866;DHT22;10593;48.398;10.698;2023-11-21T10:24:34;11.30;63.30
20866;DHT22;10593;48.398;10.698;2023-11-21T10:27:00;11.40;63.50
20866;DHT22;10593;48.398;10.698;2023-11-21T10:29:29;11.40;63.30
20866;DHT22;10593;48.398;10.698;2023-11-21T10:31:56;11.40;63.30
20866;DHT22;10593;48.398;10.698;2023-11-21T10:34:24;11.40;63.10
20866;DHT22;10593;48.398;10.698;2023-11-21T10:36:50;11.40;63.00
20866;DHT22;10593;48.398;10.698;2023-11-21T10:39:19;11.50;63.00
20866;DHT22;10593;48.398;10.698;2023-11-21T10:41:46;11.50;62.90
20866;DHT22;10593;48.398;10.698;2023-11-21T10:44:17;11.50;62.90
20866;DHT22;10593;48.398;10.698;2023-11-21T10:46:50;11.50;62.80
20866;DHT22;10593;48.398;10.698;2023-11-21T10:49:24;11.50;62.80
20866;DHT22;10593;48.398;10.698;2023-11-21T10:51:51;11.50;62.80
20866;DHT22;10593;48.398;10.698;2023-11-21T10:54:23;11.50;62.80
20866;DHT22;10593;48.398;10.698;2023-11-21T10:56:55;11.50;62.80
20866;DHT22;10593;48.398;10.698;2023-11-21T10:59:28;11.60;62.90
20866;DHT22;10593;48.398;10.698;2023-11-21T11:01:57;11.60;62.90
20866;DHT22;10593;48.398;10.698;2023-11-21T11:04:27;11.60;62.80
20866;DHT22;10593;48.398;10.698;2023-11-21T11:07:03;11.60;62.80
20866;DHT22;10593;48.398;10.698;2023-11-21T11:09:31;11.60;62.80
20866;DHT22;10593;48.398;10.698;2023-11-21T11:12:03;11.60;62.80
20866;DHT22;10593;48.398;10.698;2023-11-21T11:14:30;11.60;62.80
20866;DHT22;10593;48.398;10.698;2023-11-21T11:16:58;11.60;62.80
20866;DHT22;10593;48.398;10.698;2023-11-21T11:19:25;11.60;62.90
20866;DHT22;10593;48.398;10.698;2023-11-21T11:22:14;11.60;62.90
20866;DHT22;10593;48.398;10.698;2023-11-21T11:30:47;11.70;63.00
20866;DHT22;10593;48.398;10.698;2023-11-21T11:33:48;11.70;63.00
20866;DHT22;10593;48.398;10.698;2023-11-21T11:36:37;11.70;63.00
20866;DHT22;10593;48.398;10.698;2023-11-21T11:39:40;11.70;62.90
20866;DHT22;10593;48.398;10.698;2023-11-21T11:42:12;11.70;63.10
20866;DHT22;10593;48.398;10.698;2023-11-21T11:47:32;11.80;63.10
20866;DHT22;10593;48.398;10.698;2023-11-21T11:50:11;11.80;63.20
20866;DHT22;10593;48.398;10.698;2023-11-21T11:52:40;11.90;63.40
20866;DHT22;10593;48.398;10.698;2023-11-21T11:55:16;11.80;63.20
20866;DHT22;10593;48.398;10.698;2023-11-21T11:57:48;11.90;63.40
20866;DHT22;10593;48.398;10.698;2023-11-21T12:02:55;11.90;63.40
20866;DHT22;10593;48.398;10.698;2023-11-21T12:05:26;11.90;63.40
20866;DHT22;10593;48.398;10.698;2023-11-21T12:07:59;12.00;63.30
20866;DHT22;10593;48.398;10.698;2023-11-21T12:10:28;12.00;63.30
20866;DHT22;10593;48.398;10.698;2023-11-21T12:15:36;12.00;63.30
20866;DHT22;10593;48.398;10.698;2023-11-21T12:18:03;12.00;63.30
20866;DHT22;10593;48.398;10.698;2023-11-21T12:20:29;12.10;63.20
20866;DHT22;10593;48.398;10.698;2023-11-21T12:22:58;12.10;62.90
20866;DHT22;10593;48.398;10.698;2023-11-21T12:25:28;12.10;62.80
20866;DHT22;10593;48.398;10.698;2023-11-21T12:27:57;12.10;62.70
20866;DHT22;10593;48.398;10.698;2023-11-21T12:30:31;12.10;62.60
20866;DHT22;10593;48.398;10.698;2023-11-21T12:33:02;12.10;62.50
20866;DHT22;10593;48.398;10.698;2023-11-21T12:35:32;12.10;62.20
20866;DHT22;10593;48.398;10.698;2023-11-21T12:38:00;12.10;61.90
20866;DHT22;10593;48.398;10.698;2023-11-21T12:40:28;12.20;61.80
20866;DHT22;10593;48.398;10.698;2023-11-21T12:42:57;12.20;61.60
20866;DHT22;10593;48.398;10.698;2023-11-21T12:45:27;12.20;61.50
20866;DHT22;10593;48.398;10.698;2023-11-21T12:48:02;12.20;61.40
20866;DHT22;10593;48.398;10.698;2023-11-21T12:50:33;12.20;61.20
20866;DHT22;10593;48.398;10.698;2023-11-21T12:53:06;12.20;61.30
20866;DHT22;10593;48.398;10.698;2023-11-21T12:55:37;12.20;61.30
20866;DHT22;10593;48.398;10.698;2023-11-21T12:58:05;12.20;61.30
20866;DHT22;10593;48.398;10.698;2023-11-21T13:00:37;12.20;61.40
20866;DHT22;10593;48.398;10.698;2023-11-21T13:03:06;12.20;61.40
20866;DHT22;10593;48.398;10.698;2023-11-21T13:05:37;12.20;61.40
20866;DHT22;10593;48.398;10.698;2023-11-21T13:08:06;12.20;61.40
20866;DHT22;10593;48.398;10.698;2023-11-21T13:10:35;12.20;61.30
20866;DHT22;10593;48.398;10.698;2023-11-21T13:13:06;12.20;61.20
20866;DHT22;10593;48.398;10.698;2023-11-21T13:15:34;12.20;61.20
20866;DHT22;10593;48.398;10.698;2023-11-21T13:18:04;12.20;61.00
20866;DHT22;10593;48.398;10.698;2023-11-21T13:20:29;12.20;60.90
20866;DHT22;10593;48.398;10.698;2023-11-21T13:22:57;12.20;60.90
20866;DHT22;10593;48.398;10.698;2023-11-21T13:25:24;12.20;60.90
20866;DHT22;10593;48.398;10.698;2023-11-21T13:27:54;12.20;60.90
20866;DHT22;10593;48.398;10.698;2023-11-21T13:30:21;12.20;60.90
20866;DHT22;10593;48.398;10.698;2023-11-21T13:32:54;12.20;61.00
20866;DHT22;10593;48.398;10.698;2023-11-21T13:35:23;12.20;61.00
20866;DHT22;10593;48.398;10.698;2023-11-21T13:38:10;12.20;61.00
20866;DHT22;10593;48.398;10.698;2023-11-21T13:40:51;12.20;60.90
20866;DHT22;10593;48.398;10.698;2023-11-21T13:43:23;12.20;60.90
20866;DHT22;10593;48.398;10.698;2023-11-21T13:45:51;12.20;60.90
20866;DHT22;10593;48.398;10.698;2023-11-21T13:48:40;12.20;60.90
20866;DHT22;10593;48.398;10.698;2023-11-21T13:51:08;12.20;60.90
20866;DHT22;10593;48.398;10.698;2023-11-21T13:53:45;12.20;60.80
20866;DHT22;10593;48.398;10.698;2023-11-21T13:56:13;12.20;60.80
20866;DHT22;10593;48.398;10.698;2023-11-21T13:58:43;12.20;60.70
20866;DHT22;10593;48.398;10.698;2023-11-21T14:01:19;12.20;60.60
20866;DHT22;10593;48.398;10.698;2023-11-21T14:03:49;12.20;60.50
20866;DHT22;10593;48.398;10.698;2023-11-21T14:06:17;12.20;60.40
20866;DHT22;10593;48.398;10.698;2023-11-21T14:08:50;12.20;60.40
20866;DHT22;10593;48.398;10.698;2023-11-21T14:11:16;12.20;60.40
20866;DHT22;10593;48.398;10.698;2023-11-21T14:13:44;12.20;60.20
20866;DHT22;10593;48.398;10.698;2023-11-21T14:16:14;12.20;60.30
20866;DHT22;10593;48.398;10.698;2023-11-21T14:18:42;12.20;60.40
20866;DHT22;10593;48.398;10.698;2023-11-21T14:21:19;12.20;60.40
20866;DHT22;10593;48.398;10.698;2023-11-21T14:23:45;12.20;60.40
20866;DHT22;10593;48.398;10.698;2023-11-21T14:26:11;12.30;60.50
20866;DHT22;10593;48.398;10.698;2023-11-21T14:28:43;12.20;60.40
20866;DHT22;10593;48.398;10.698;2023-11-21T14:31:08;12.20;60.40
20866;DHT22;10593;48.398;10.698;2023-11-21T14:33:39;12.20;60.40
20866;DHT22;10593;48.398;10.698;2023-11-21T14:36:06;12.20;60.40
20866;DHT22;10593;48.398;10.698;2023-11-21T14:38:38;12.20;60.50
20866;DHT22;10593;48.398;10.698;2023-11-21T14:41:05;12.30;60.60
20866;DHT22;10593;48.398;10.698;2023-11-21T14:43:36;12.20;60.50
20866;DHT22;10593;48.398;10.698;2023-11-21T14:46:04;12.20;60.50
20866;DHT22;10593;48.398;10.698;2023-11-21T14:48:34;12.20;60.50
20866;DHT22;10593;48.398;10.698;2023-11-21T14:51:09;12.20;60.60
20866;DHT22;10593;48.398;10.698;2023-11-21T14:53:40;12.20;60.50
20866;DHT22;10593;48.398;10.698;2023-11-21T14:56:21;12.20;60.50
20866;DHT22;10593;48.398;10.698;2023-11-21T14:58:57;12.10;60.50
20866;DHT22;10593;48.398;10.698;2023-11-21T15:01:31;12.10;60.50
20866;DHT22;10593;48.398;10.698;2023-11-21T15:04:16;12.10;60.60
20866;DHT22;10593;48.398;10.698;2023-11-21T15:06:49;12.10;60.60
20866;DHT22;10593;48.398;10.698;2023-11-21T15:09:16;12.10;60.80
20866;DHT22;10593;48.398;10.698;2023-11-21T15:11:48;12.10;60.80
20866;DHT22;10593;48.398;10.698;2023-11-21T15:14:13;12.10;60.80
20866;DHT22;10593;48.398;10.698;2023-11-21T15:16:45;12.10;60.80
20866;DHT22;10593;48.398;10.698;2023-11-21T15:19:16;12.00;60.70
20866;DHT22;10593;48.398;10.698;2023-11-21T15:21:44;12.00;60.70
20866;DHT22;10593;48.398;10.698;2023-11-21T15:24:12;12.00;60.70
20866;DHT22;10593;48.398;10.698;2023-11-21T15:26:37;12.00;60.70
20866;DHT22;10593;48.398;10.698;2023-11-21T15:29:04;12.00;60.70
20866;DHT22;10593;48.398;10.698;2023-11-21T15:31:30;12.00;60.70
20866;DHT22;10593;48.398;10.698;2023-11-21T15:33:55;12.00;60.80
20866;DHT22;10593;48.398;10.698;2023-11-21T15:36:28;12.00;60.90